createdAt,value
2016-09-29T00:00:14.633Z,1001.8
2016-09-29T00:00:35.216Z,1001.8
2016-09-29T00:00:55.806Z,1001.8
2016-09-29T00:01:16.383Z,1001.8
2016-09-29T00:01:36.968Z,1001.8
2016-09-29T00:01:57.552Z,1001.8
2016-09-29T00:02:18.131Z,1001.8
2016-09-29T00:02:38.714Z,1001.8
2016-09-29T00:02:59.306Z,1001.8
2016-09-29T00:03:19.920Z,1001.8
2016-09-29T00:03:40.479Z,1001.8
2016-09-29T00:04:01.049Z,1001.8
2016-09-29T00:04:21.631Z,1001.8
2016-09-29T00:04:42.211Z,1001.9
2016-09-29T00:05:02.780Z,1001.9
2016-09-29T00:05:23.339Z,1001.9
2016-09-29T00:05:43.919Z,1001.9
2016-09-29T00:06:04.508Z,1001.9
2016-09-29T00:06:25.081Z,1001.9
2016-09-29T00:06:45.656Z,1001.9
2016-09-29T00:07:06.223Z,1001.9
2016-09-29T00:07:26.808Z,1001.9
2016-09-29T00:07:47.398Z,1001.9
2016-09-29T00:08:07.985Z,1001.9
2016-09-29T00:08:28.568Z,1001.9
2016-09-29T00:08:49.153Z,1001.8
2016-09-29T00:09:09.723Z,1001.9
2016-09-29T00:09:30.306Z,1001.8
2016-09-29T00:09:50.880Z,1001.9
2016-09-29T00:10:11.450Z,1001.9
2016-09-29T00:10:32.048Z,1001.9
2016-09-29T00:10:52.626Z,1001.8
2016-09-29T00:11:13.208Z,1001.9
2016-09-29T00:11:33.835Z,1001.9
2016-09-29T00:11:54.405Z,1001.9
2016-09-29T00:12:15.000Z,1001.9
2016-09-29T00:12:35.576Z,1001.9
2016-09-29T00:12:56.149Z,1001.9
2016-09-29T00:13:16.717Z,1001.9
2016-09-29T00:13:37.284Z,1001.8
2016-09-29T00:13:57.854Z,1001.9
2016-09-29T00:14:18.429Z,1001.8
2016-09-29T00:14:39.019Z,1001.9
2016-09-29T00:14:59.585Z,1001.8
2016-09-29T00:15:20.176Z,1001.9
2016-09-29T00:15:40.786Z,1001.9
2016-09-29T00:16:01.360Z,1001.9
2016-09-29T00:16:21.939Z,1001.9
2016-09-29T00:16:42.506Z,1001.9
2016-09-29T00:17:03.110Z,1001.8
2016-09-29T00:17:23.702Z,1001.8
2016-09-29T00:17:44.289Z,1001.8
2016-09-29T00:18:04.866Z,1001.9
2016-09-29T00:18:25.433Z,1001.8
2016-09-29T00:18:46.010Z,1001.9
2016-09-29T00:19:06.600Z,1001.8
2016-09-29T00:19:27.197Z,1001.8
2016-09-29T00:19:47.760Z,1001.9
2016-09-29T00:20:08.333Z,1001.9
2016-09-29T00:20:28.912Z,1001.8
2016-09-29T00:20:49.499Z,1001.8
2016-09-29T00:21:10.118Z,1001.8
2016-09-29T00:21:30.671Z,1001.8
2016-09-29T00:21:51.251Z,1001.8
2016-09-29T00:22:11.832Z,1001.8
2016-09-29T00:22:32.432Z,1001.8
2016-09-29T00:22:53.008Z,1001.8
2016-09-29T00:23:13.589Z,1001.8
2016-09-29T00:23:34.163Z,1001.8
2016-09-29T00:23:54.767Z,1001.8
2016-09-29T00:24:15.340Z,1001.7
2016-09-29T00:24:35.917Z,1001.8
2016-09-29T00:24:56.487Z,1001.7
2016-09-29T00:25:17.105Z,1001.7
2016-09-29T00:25:37.680Z,1001.7
2016-09-29T00:25:58.250Z,1001.8
2016-09-29T00:26:19.708Z,1001.8
2016-09-29T00:26:40.291Z,1001.8
2016-09-29T00:27:00.891Z,1001.8
2016-09-29T00:27:21.497Z,1001.8
2016-09-29T00:27:42.073Z,1001.8
2016-09-29T00:28:02.661Z,1001.8
2016-09-29T00:28:23.236Z,1001.8
2016-09-29T00:28:43.844Z,1001.8
2016-09-29T00:29:04.443Z,1001.8
2016-09-29T00:29:25.025Z,1001.8
2016-09-29T00:29:45.601Z,1001.8
2016-09-29T00:30:06.165Z,1001.8
2016-09-29T00:30:26.746Z,1001.8
2016-09-29T00:30:47.331Z,1001.8
2016-09-29T00:31:07.908Z,1001.8
2016-09-29T00:31:28.496Z,1001.8
2016-09-29T00:31:49.058Z,1001.8
2016-09-29T00:32:09.691Z,1001.8
2016-09-29T00:32:30.288Z,1001.8
2016-09-29T00:32:50.878Z,1001.8
2016-09-29T00:33:11.483Z,1001.8
2016-09-29T00:33:32.049Z,1001.8
2016-09-29T00:33:52.633Z,1001.8
2016-09-29T00:34:13.201Z,1001.8
2016-09-29T00:34:33.756Z,1001.8
2016-09-29T00:34:54.353Z,1001.8
2016-09-29T00:35:14.941Z,1001.8
2016-09-29T00:35:35.549Z,1001.8
2016-09-29T00:35:56.129Z,1001.8
2016-09-29T00:36:16.732Z,1001.8
2016-09-29T00:36:37.305Z,1001.8
2016-09-29T00:36:57.906Z,1001.8
2016-09-29T00:37:18.488Z,1001.8
2016-09-29T00:37:39.061Z,1001.8
2016-09-29T00:37:59.648Z,1001.8
2016-09-29T00:38:20.218Z,1001.8
2016-09-29T00:38:40.800Z,1001.8
2016-09-29T00:39:01.392Z,1001.8
2016-09-29T00:39:21.972Z,1001.8
2016-09-29T00:39:42.553Z,1001.8
2016-09-29T00:40:03.135Z,1001.8
2016-09-29T00:40:23.725Z,1001.8
2016-09-29T00:40:44.299Z,1001.8
2016-09-29T00:41:04.854Z,1001.7
2016-09-29T00:41:25.438Z,1001.7
2016-09-29T00:41:46.031Z,1001.7
2016-09-29T00:42:06.600Z,1001.7
2016-09-29T00:42:27.188Z,1001.7
2016-09-29T00:42:47.765Z,1001.7
2016-09-29T00:43:08.336Z,1001.7
2016-09-29T00:43:28.905Z,1001.7
2016-09-29T00:43:49.495Z,1001.7
2016-09-29T00:44:10.056Z,1001.7
2016-09-29T00:44:30.656Z,1001.7
2016-09-29T00:44:51.249Z,1001.7
2016-09-29T00:45:11.843Z,1001.7
2016-09-29T00:45:32.424Z,1001.7
2016-09-29T00:45:52.988Z,1001.7
2016-09-29T00:46:13.585Z,1001.7
2016-09-29T00:46:34.157Z,1001.7
2016-09-29T00:46:54.729Z,1001.7
2016-09-29T00:47:15.294Z,1001.7
2016-09-29T00:47:35.872Z,1001.7
2016-09-29T00:47:56.467Z,1001.7
2016-09-29T00:48:17.048Z,1001.7
2016-09-29T00:48:37.622Z,1001.7
2016-09-29T00:48:58.182Z,1001.7
2016-09-29T00:49:18.755Z,1001.7
2016-09-29T00:49:39.354Z,1001.7
2016-09-29T00:49:59.951Z,1001.7
2016-09-29T00:50:20.525Z,1001.7
2016-09-29T00:50:41.094Z,1001.6
2016-09-29T00:51:01.680Z,1001.6
2016-09-29T00:51:22.257Z,1001.7
2016-09-29T00:51:42.828Z,1001.7
2016-09-29T00:52:03.411Z,1001.7
2016-09-29T00:52:23.995Z,1001.7
2016-09-29T00:52:44.580Z,1001.7
2016-09-29T00:53:05.164Z,1001.7
2016-09-29T00:53:25.728Z,1001.7
2016-09-29T00:53:46.298Z,1001.7
2016-09-29T00:54:06.882Z,1001.7
2016-09-29T00:54:27.465Z,1001.7
2016-09-29T00:54:48.050Z,1001.7
2016-09-29T00:55:09.778Z,1001.7
2016-09-29T00:55:30.380Z,1001.6
2016-09-29T00:55:50.973Z,1001.7
2016-09-29T00:56:11.567Z,1001.6
2016-09-29T00:56:32.143Z,1001.6
2016-09-29T00:56:52.730Z,1001.6
2016-09-29T00:57:13.301Z,1001.6
2016-09-29T00:57:33.878Z,1001.6
2016-09-29T00:57:54.465Z,1001.6
2016-09-29T00:58:15.045Z,1001.6
2016-09-29T00:58:35.613Z,1001.6
2016-09-29T00:58:56.208Z,1001.6
2016-09-29T00:59:16.794Z,1001.6
2016-09-29T00:59:37.361Z,1001.6
2016-09-29T00:59:57.967Z,1001.6
2016-09-29T01:00:18.544Z,1001.6
2016-09-29T01:00:39.133Z,1001.6
2016-09-29T01:00:59.711Z,1001.6
2016-09-29T01:01:20.303Z,1001.6
2016-09-29T01:01:40.876Z,1001.5
2016-09-29T01:02:01.457Z,1001.5
2016-09-29T01:02:22.045Z,1001.6
2016-09-29T01:02:42.631Z,1001.6
2016-09-29T01:03:03.209Z,1001.5
2016-09-29T01:03:23.766Z,1001.6
2016-09-29T01:03:44.336Z,1001.6
2016-09-29T01:04:04.921Z,1001.6
2016-09-29T01:04:25.504Z,1001.5
2016-09-29T01:04:46.079Z,1001.5
2016-09-29T01:05:06.642Z,1001.5
2016-09-29T01:05:27.223Z,1001.5
2016-09-29T01:05:47.815Z,1001.5
2016-09-29T01:06:08.393Z,1001.4
2016-09-29T01:06:28.963Z,1001.5
2016-09-29T01:06:49.596Z,1001.5
2016-09-29T01:07:10.207Z,1001.5
2016-09-29T01:07:30.806Z,1001.4
2016-09-29T01:07:51.391Z,1001.4
2016-09-29T01:08:12.153Z,1001.5
2016-09-29T01:08:32.732Z,1001.5
2016-09-29T01:08:53.302Z,1001.4
2016-09-29T01:09:13.879Z,1001.4
2016-09-29T01:09:34.466Z,1001.4
2016-09-29T01:09:55.036Z,1001.4
2016-09-29T01:10:15.603Z,1001.5
2016-09-29T01:10:36.203Z,1001.4
2016-09-29T01:10:56.781Z,1001.4
2016-09-29T01:11:17.355Z,1001.4
2016-09-29T01:11:37.944Z,1001.4
2016-09-29T01:11:58.512Z,1001.4
2016-09-29T01:12:19.094Z,1001.4
2016-09-29T01:12:39.712Z,1001.4
2016-09-29T01:13:00.310Z,1001.4
2016-09-29T01:13:20.859Z,1001.4
2016-09-29T01:13:41.418Z,1001.4
2016-09-29T01:14:02.000Z,1001.4
2016-09-29T01:14:22.591Z,1001.4
2016-09-29T01:14:43.172Z,1001.4
2016-09-29T01:15:03.746Z,1001.4
2016-09-29T01:15:24.336Z,1001.4
2016-09-29T01:15:44.931Z,1001.4
2016-09-29T01:16:05.501Z,1001.4
2016-09-29T01:16:26.088Z,1001.4
2016-09-29T01:16:46.654Z,1001.4
2016-09-29T01:17:07.237Z,1001.4
2016-09-29T01:17:27.800Z,1001.4
2016-09-29T01:17:48.375Z,1001.4
2016-09-29T01:18:08.950Z,1001.3
2016-09-29T01:18:29.570Z,1001.3
2016-09-29T01:18:50.146Z,1001.4
2016-09-29T01:19:10.725Z,1001.4
2016-09-29T01:19:31.297Z,1001.4
2016-09-29T01:19:51.864Z,1001.4
2016-09-29T01:20:12.468Z,1001.4
2016-09-29T01:20:33.043Z,1001.3
2016-09-29T01:20:53.626Z,1001.4
2016-09-29T01:21:14.205Z,1001.4
2016-09-29T01:21:34.776Z,1001.4
2016-09-29T01:21:55.361Z,1001.4
2016-09-29T01:22:15.926Z,1001.4
2016-09-29T01:22:36.500Z,1001.4
2016-09-29T01:22:57.088Z,1001.4
2016-09-29T01:23:17.699Z,1001.4
2016-09-29T01:23:38.280Z,1001.4
2016-09-29T01:23:58.871Z,1001.4
2016-09-29T01:24:19.458Z,1001.4
2016-09-29T01:24:40.025Z,1001.4
2016-09-29T01:25:01.255Z,1001.4
2016-09-29T01:25:21.833Z,1001.4
2016-09-29T01:25:42.470Z,1001.4
2016-09-29T01:26:03.061Z,1001.4
2016-09-29T01:26:23.621Z,1001.4
2016-09-29T01:26:44.222Z,1001.4
2016-09-29T01:27:04.806Z,1001.4
2016-09-29T01:27:25.374Z,1001.4
2016-09-29T01:27:45.945Z,1001.4
2016-09-29T01:28:06.517Z,1001.4
2016-09-29T01:28:27.081Z,1001.4
2016-09-29T01:28:47.800Z,1001.4
2016-09-29T01:29:08.425Z,1001.4
2016-09-29T01:29:29.011Z,1001.4
2016-09-29T01:29:49.616Z,1001.3
2016-09-29T01:30:10.187Z,1001.4
2016-09-29T01:30:30.887Z,1001.4
2016-09-29T01:30:51.462Z,1001.4
2016-09-29T01:31:12.032Z,1001.4
2016-09-29T01:31:32.615Z,1001.3
2016-09-29T01:31:53.202Z,1001.3
2016-09-29T01:32:13.781Z,1001.4
2016-09-29T01:32:34.346Z,1001.4
2016-09-29T01:32:54.927Z,1001.4
2016-09-29T01:33:15.512Z,1001.3
2016-09-29T01:33:36.094Z,1001.3
2016-09-29T01:33:56.685Z,1001.3
2016-09-29T01:34:17.322Z,1001.3
2016-09-29T01:34:37.896Z,1001.3
2016-09-29T01:34:58.475Z,1001.3
2016-09-29T01:35:19.073Z,1001.3
2016-09-29T01:35:39.670Z,1001.3
2016-09-29T01:36:00.255Z,1001.3
2016-09-29T01:36:20.841Z,1001.3
2016-09-29T01:36:41.434Z,1001.3
2016-09-29T01:37:02.018Z,1001.3
2016-09-29T01:37:22.616Z,1001.2
2016-09-29T01:37:43.190Z,1001.2
2016-09-29T01:38:03.758Z,1001.2
2016-09-29T01:38:24.332Z,1001.2
2016-09-29T01:38:44.909Z,1001.2
2016-09-29T01:39:05.482Z,1001.2
2016-09-29T01:39:26.050Z,1001.2
2016-09-29T01:39:46.634Z,1001.2
2016-09-29T01:40:07.212Z,1001.2
2016-09-29T01:40:27.780Z,1001.2
2016-09-29T01:40:48.358Z,1001.2
2016-09-29T01:41:08.955Z,1001.2
2016-09-29T01:41:29.579Z,1001.2
2016-09-29T01:41:50.179Z,1001.2
2016-09-29T01:42:10.738Z,1001.2
2016-09-29T01:42:31.320Z,1001.2
2016-09-29T01:42:51.884Z,1001.2
2016-09-29T01:43:12.463Z,1001.2
2016-09-29T01:43:33.034Z,1001.2
2016-09-29T01:43:53.609Z,1001.2
2016-09-29T01:44:14.207Z,1001.2
2016-09-29T01:44:34.839Z,1001.2
2016-09-29T01:44:55.418Z,1001.2
2016-09-29T01:45:15.985Z,1001.2
2016-09-29T01:45:36.549Z,1001.2
2016-09-29T01:45:57.124Z,1001.2
2016-09-29T01:46:17.716Z,1001.2
2016-09-29T01:46:38.288Z,1001.2
2016-09-29T01:46:58.864Z,1001.2
2016-09-29T01:47:19.431Z,1001.2
2016-09-29T01:47:40.030Z,1001.2
2016-09-29T01:48:00.612Z,1001.2
2016-09-29T01:48:21.172Z,1001.2
2016-09-29T01:48:41.751Z,1001.2
2016-09-29T01:49:02.317Z,1001.2
2016-09-29T01:49:22.889Z,1001.2
2016-09-29T01:49:43.467Z,1001.2
2016-09-29T01:50:04.050Z,1001.2
2016-09-29T01:50:24.647Z,1001.1
2016-09-29T01:50:45.224Z,1001.1
2016-09-29T01:51:05.814Z,1001.1
2016-09-29T01:51:26.390Z,1001.1
2016-09-29T01:51:46.961Z,1001.1
2016-09-29T01:52:07.545Z,1001.1
2016-09-29T01:52:28.119Z,1001.1
2016-09-29T01:52:48.714Z,1001.1
2016-09-29T01:53:09.270Z,1001.1
2016-09-29T01:53:29.842Z,1001
2016-09-29T01:53:50.415Z,1001
2016-09-29T01:54:11.018Z,1001
2016-09-29T01:54:31.606Z,1001
2016-09-29T01:54:52.187Z,1001
2016-09-29T01:55:12.759Z,1001
2016-09-29T01:55:33.352Z,1001
2016-09-29T01:55:53.934Z,1001
2016-09-29T01:56:14.520Z,1001
2016-09-29T01:56:35.098Z,1001
2016-09-29T01:56:55.669Z,1000.9
2016-09-29T01:57:16.249Z,1001
2016-09-29T01:57:36.827Z,1000.9
2016-09-29T01:57:57.396Z,1001
2016-09-29T01:58:17.969Z,1001
2016-09-29T01:58:38.549Z,1000.9
2016-09-29T01:58:59.118Z,1001
2016-09-29T01:59:19.703Z,1001
2016-09-29T01:59:40.265Z,1001
2016-09-29T02:00:00.860Z,1001
2016-09-29T02:00:21.436Z,1001
2016-09-29T02:00:41.996Z,1001
2016-09-29T02:01:02.585Z,1001
2016-09-29T02:01:23.157Z,1001
2016-09-29T02:01:43.734Z,1000.9
2016-09-29T02:02:04.306Z,1000.9
2016-09-29T02:02:24.897Z,1000.9
2016-09-29T02:02:45.468Z,1000.9
2016-09-29T02:03:06.048Z,1000.9
2016-09-29T02:03:26.619Z,1000.9
2016-09-29T02:03:47.229Z,1000.9
2016-09-29T02:04:07.812Z,1000.9
2016-09-29T02:04:28.363Z,1000.9
2016-09-29T02:04:48.941Z,1000.9
2016-09-29T02:05:09.502Z,1000.9
2016-09-29T02:05:30.104Z,1000.9
2016-09-29T02:05:50.703Z,1000.9
2016-09-29T02:06:11.273Z,1000.9
2016-09-29T02:06:31.845Z,1000.9
2016-09-29T02:06:52.436Z,1000.9
2016-09-29T02:07:13.004Z,1000.9
2016-09-29T02:07:33.569Z,1000.9
2016-09-29T02:07:54.133Z,1000.9
2016-09-29T02:08:14.714Z,1000.9
2016-09-29T02:08:35.310Z,1000.9
2016-09-29T02:08:55.879Z,1001
2016-09-29T02:09:16.473Z,1000.9
2016-09-29T02:09:37.041Z,1000.9
2016-09-29T02:09:57.812Z,1000.9
2016-09-29T02:10:18.401Z,1000.9
2016-09-29T02:10:38.986Z,1000.9
2016-09-29T02:10:59.537Z,1000.9
2016-09-29T02:11:20.126Z,1000.9
2016-09-29T02:11:40.709Z,1000.9
2016-09-29T02:12:01.280Z,1000.9
2016-09-29T02:12:21.855Z,1000.9
2016-09-29T02:12:42.420Z,1000.9
2016-09-29T02:13:02.994Z,1000.9
2016-09-29T02:13:23.597Z,1000.9
2016-09-29T02:13:44.193Z,1001
2016-09-29T02:14:04.769Z,1001
2016-09-29T02:14:25.331Z,1000.9
2016-09-29T02:14:45.905Z,1001
2016-09-29T02:15:06.489Z,1000.9
2016-09-29T02:15:27.076Z,1001
2016-09-29T02:15:47.645Z,1001
2016-09-29T02:16:08.205Z,1000.9
2016-09-29T02:16:28.779Z,1001
2016-09-29T02:16:49.356Z,1001
2016-09-29T02:17:09.927Z,1001
2016-09-29T02:17:30.489Z,1000.9
2016-09-29T02:17:51.069Z,1000.9
2016-09-29T02:18:11.641Z,1000.9
2016-09-29T02:18:32.235Z,1000.9
2016-09-29T02:18:52.806Z,1000.9
2016-09-29T02:19:13.371Z,1001
2016-09-29T02:19:33.944Z,1000.9
2016-09-29T02:19:54.513Z,1000.9
2016-09-29T02:20:15.126Z,1000.9
2016-09-29T02:20:35.730Z,1000.9
2016-09-29T02:20:56.296Z,1000.9
2016-09-29T02:21:16.879Z,1000.9
2016-09-29T02:21:37.450Z,1000.9
2016-09-29T02:21:58.040Z,1000.9
2016-09-29T02:22:18.611Z,1000.9
2016-09-29T02:22:39.195Z,1000.9
2016-09-29T02:22:59.776Z,1000.9
2016-09-29T02:23:20.369Z,1000.9
2016-09-29T02:23:40.940Z,1000.9
2016-09-29T02:24:01.522Z,1000.9
2016-09-29T02:24:22.083Z,1000.8
2016-09-29T02:24:42.649Z,1000.9
2016-09-29T02:25:03.237Z,1000.8
2016-09-29T02:25:23.813Z,1000.9
2016-09-29T02:25:44.386Z,1000.9
2016-09-29T02:26:04.963Z,1000.9
2016-09-29T02:26:25.566Z,1000.9
2016-09-29T02:26:46.153Z,1000.9
2016-09-29T02:27:06.716Z,1000.9
2016-09-29T02:27:27.272Z,1000.9
2016-09-29T02:27:47.852Z,1000.9
2016-09-29T02:28:08.442Z,1000.9
2016-09-29T02:28:29.052Z,1000.9
2016-09-29T02:28:49.615Z,1000.9
2016-09-29T02:29:10.209Z,1000.9
2016-09-29T02:29:30.800Z,1000.9
2016-09-29T02:29:51.372Z,1000.9
2016-09-29T02:30:11.944Z,1000.9
2016-09-29T02:30:32.539Z,1000.9
2016-09-29T02:30:53.128Z,1000.9
2016-09-29T02:31:13.699Z,1000.9
2016-09-29T02:31:34.283Z,1000.9
2016-09-29T02:31:54.859Z,1000.9
2016-09-29T02:32:15.431Z,1000.9
2016-09-29T02:32:36.010Z,1000.9
2016-09-29T02:32:56.579Z,1000.9
2016-09-29T02:33:17.146Z,1000.9
2016-09-29T02:33:37.709Z,1000.9
2016-09-29T02:33:58.304Z,1000.8
2016-09-29T02:34:18.870Z,1000.8
2016-09-29T02:34:39.448Z,1000.8
2016-09-29T02:35:00.024Z,1000.8
2016-09-29T02:35:20.579Z,1000.8
2016-09-29T02:35:41.155Z,1000.8
2016-09-29T02:36:01.742Z,1000.8
2016-09-29T02:36:22.314Z,1000.9
2016-09-29T02:36:42.888Z,1000.9
2016-09-29T02:37:03.469Z,1000.8
2016-09-29T02:37:24.041Z,1000.9
2016-09-29T02:37:44.613Z,1000.9
2016-09-29T02:38:05.180Z,1000.9
2016-09-29T02:38:25.756Z,1000.9
2016-09-29T02:38:46.329Z,1000.9
2016-09-29T02:39:06.919Z,1000.9
2016-09-29T02:39:27.500Z,1000.8
2016-09-29T02:39:48.102Z,1000.8
2016-09-29T02:40:08.665Z,1000.8
2016-09-29T02:40:29.230Z,1000.8
2016-09-29T02:40:49.812Z,1000.8
2016-09-29T02:41:10.419Z,1000.8
2016-09-29T02:41:30.995Z,1000.8
2016-09-29T02:41:51.560Z,1000.8
2016-09-29T02:42:12.124Z,1000.8
2016-09-29T02:42:32.706Z,1000.8
2016-09-29T02:42:53.265Z,1000.8
2016-09-29T02:43:13.830Z,1000.8
2016-09-29T02:43:34.415Z,1000.8
2016-09-29T02:43:54.982Z,1000.8
2016-09-29T02:44:15.562Z,1000.8
2016-09-29T02:44:36.150Z,1000.8
2016-09-29T02:44:56.728Z,1000.8
2016-09-29T02:45:17.297Z,1000.9
2016-09-29T02:45:37.868Z,1000.8
2016-09-29T02:45:58.470Z,1000.8
2016-09-29T02:46:19.049Z,1000.8
2016-09-29T02:46:39.629Z,1000.8
2016-09-29T02:47:00.207Z,1000.8
2016-09-29T02:47:20.777Z,1000.8
2016-09-29T02:47:41.434Z,1000.8
2016-09-29T02:48:02.013Z,1000.8
2016-09-29T02:48:22.574Z,1000.8
2016-09-29T02:48:43.135Z,1000.8
2016-09-29T02:49:03.714Z,1000.8
2016-09-29T02:49:24.304Z,1000.8
2016-09-29T02:49:44.897Z,1000.8
2016-09-29T02:50:05.468Z,1000.8
2016-09-29T02:50:26.036Z,1000.8
2016-09-29T02:50:46.615Z,1000.8
2016-09-29T02:51:07.206Z,1000.8
2016-09-29T02:51:27.817Z,1000.7
2016-09-29T02:51:48.416Z,1000.8
2016-09-29T02:52:09.006Z,1000.8
2016-09-29T02:52:29.607Z,1000.8
2016-09-29T02:52:50.168Z,1000.7
2016-09-29T02:53:10.733Z,1000.8
2016-09-29T02:53:31.310Z,1000.8
2016-09-29T02:53:51.888Z,1000.8
2016-09-29T02:54:12.467Z,1000.8
2016-09-29T02:54:33.024Z,1000.8
2016-09-29T02:54:53.601Z,1000.8
2016-09-29T02:55:14.161Z,1000.8
2016-09-29T02:55:34.743Z,1000.8
2016-09-29T02:55:55.332Z,1000.8
2016-09-29T02:56:15.902Z,1000.8
2016-09-29T02:56:36.477Z,1000.8
2016-09-29T02:56:57.058Z,1000.8
2016-09-29T02:57:17.636Z,1000.9
2016-09-29T02:57:38.212Z,1000.8
2016-09-29T02:57:58.805Z,1000.8
2016-09-29T02:58:19.387Z,1000.8
2016-09-29T02:58:39.968Z,1000.8
2016-09-29T02:59:00.561Z,1000.8
2016-09-29T02:59:21.128Z,1000.8
2016-09-29T02:59:41.713Z,1000.8
2016-09-29T03:00:02.282Z,1000.8
2016-09-29T03:00:22.845Z,1000.8
2016-09-29T03:00:43.433Z,1000.8
2016-09-29T03:01:04.011Z,1000.8
2016-09-29T03:01:24.590Z,1000.8
2016-09-29T03:01:45.190Z,1000.8
2016-09-29T03:02:05.766Z,1000.8
2016-09-29T03:02:26.338Z,1000.8
2016-09-29T03:02:46.947Z,1000.8
2016-09-29T03:03:07.525Z,1000.8
2016-09-29T03:03:28.125Z,1000.8
2016-09-29T03:03:48.708Z,1000.8
2016-09-29T03:04:09.266Z,1000.8
2016-09-29T03:04:29.847Z,1000.9
2016-09-29T03:04:50.434Z,1000.9
2016-09-29T03:05:11.030Z,1000.9
2016-09-29T03:05:31.611Z,1000.9
2016-09-29T03:05:52.183Z,1000.9
2016-09-29T03:06:12.790Z,1000.9
2016-09-29T03:06:33.370Z,1000.9
2016-09-29T03:06:53.967Z,1000.9
2016-09-29T03:07:14.571Z,1000.9
2016-09-29T03:07:35.160Z,1000.9
2016-09-29T03:07:55.742Z,1000.9
2016-09-29T03:08:16.337Z,1000.9
2016-09-29T03:08:36.899Z,1000.9
2016-09-29T03:08:57.467Z,1000.9
2016-09-29T03:09:18.049Z,1000.9
2016-09-29T03:09:38.628Z,1000.9
2016-09-29T03:09:59.203Z,1000.9
2016-09-29T03:10:19.781Z,1000.9
2016-09-29T03:10:40.350Z,1000.9
2016-09-29T03:11:00.975Z,1000.9
2016-09-29T03:11:21.561Z,1000.9
2016-09-29T03:11:42.139Z,1000.9
2016-09-29T03:12:02.697Z,1000.9
2016-09-29T03:12:23.274Z,1000.9
2016-09-29T03:12:43.851Z,1000.9
2016-09-29T03:13:04.457Z,1000.9
2016-09-29T03:13:25.041Z,1000.9
2016-09-29T03:13:45.613Z,1000.9
2016-09-29T03:14:06.217Z,1000.9
2016-09-29T03:14:26.789Z,1000.9
2016-09-29T03:14:47.366Z,1000.9
2016-09-29T03:15:07.945Z,1000.9
2016-09-29T03:15:28.534Z,1000.9
2016-09-29T03:15:49.127Z,1000.9
2016-09-29T03:16:09.718Z,1000.8
2016-09-29T03:16:30.280Z,1000.8
2016-09-29T03:16:50.840Z,1000.8
2016-09-29T03:17:11.421Z,1000.8
2016-09-29T03:17:31.995Z,1000.8
2016-09-29T03:17:52.577Z,1000.8
2016-09-29T03:18:13.178Z,1000.8
2016-09-29T03:18:33.753Z,1000.8
2016-09-29T03:18:54.337Z,1000.8
2016-09-29T03:19:14.914Z,1000.8
2016-09-29T03:19:35.489Z,1000.8
2016-09-29T03:19:56.081Z,1000.8
2016-09-29T03:20:16.692Z,1000.8
2016-09-29T03:20:37.285Z,1000.8
2016-09-29T03:20:57.896Z,1000.8
2016-09-29T03:21:18.471Z,1000.8
2016-09-29T03:21:39.064Z,1000.8
2016-09-29T03:21:59.643Z,1000.8
2016-09-29T03:22:20.217Z,1000.8
2016-09-29T03:22:40.793Z,1000.8
2016-09-29T03:23:01.346Z,1000.8
2016-09-29T03:23:21.939Z,1000.7
2016-09-29T03:23:42.516Z,1000.7
2016-09-29T03:24:03.099Z,1000.7
2016-09-29T03:24:23.671Z,1000.7
2016-09-29T03:24:44.255Z,1000.7
2016-09-29T03:25:04.848Z,1000.7
2016-09-29T03:25:25.484Z,1000.7
2016-09-29T03:25:46.061Z,1000.7
2016-09-29T03:26:06.637Z,1000.7
2016-09-29T03:26:27.209Z,1000.6
2016-09-29T03:26:47.824Z,1000.6
2016-09-29T03:27:08.405Z,1000.7
2016-09-29T03:27:29.003Z,1000.6
2016-09-29T03:27:49.600Z,1000.7
2016-09-29T03:28:10.185Z,1000.7
2016-09-29T03:28:30.775Z,1000.7
2016-09-29T03:28:51.327Z,1000.7
2016-09-29T03:29:11.899Z,1000.7
2016-09-29T03:29:32.484Z,1000.7
2016-09-29T03:29:53.067Z,1000.7
2016-09-29T03:30:13.633Z,1000.6
2016-09-29T03:30:34.202Z,1000.6
2016-09-29T03:30:54.765Z,1000.6
2016-09-29T03:31:15.368Z,1000.6
2016-09-29T03:31:35.965Z,1000.6
2016-09-29T03:31:56.553Z,1000.6
2016-09-29T03:32:17.136Z,1000.6
2016-09-29T03:32:37.736Z,1000.6
2016-09-29T03:32:58.322Z,1000.5
2016-09-29T03:33:18.888Z,1000.6
2016-09-29T03:33:39.446Z,1000.6
2016-09-29T03:34:00.042Z,1000.6
2016-09-29T03:34:20.621Z,1000.6
2016-09-29T03:34:41.306Z,1000.6
2016-09-29T03:35:01.871Z,1000.6
2016-09-29T03:35:22.465Z,1000.6
2016-09-29T03:35:43.048Z,1000.6
2016-09-29T03:36:03.640Z,1000.6
2016-09-29T03:36:24.225Z,1000.6
2016-09-29T03:36:44.815Z,1000.6
2016-09-29T03:37:05.407Z,1000.6
2016-09-29T03:37:26.002Z,1000.6
2016-09-29T03:37:46.582Z,1000.5
2016-09-29T03:38:07.159Z,1000.5
2016-09-29T03:38:27.738Z,1000.6
2016-09-29T03:38:48.329Z,1000.6
2016-09-29T03:39:08.946Z,1000.6
2016-09-29T03:39:29.518Z,1000.6
2016-09-29T03:39:50.114Z,1000.5
2016-09-29T03:40:10.692Z,1000.6
2016-09-29T03:40:31.281Z,1000.6
2016-09-29T03:40:51.880Z,1000.5
2016-09-29T03:41:12.476Z,1000.5
2016-09-29T03:41:33.075Z,1000.6
2016-09-29T03:41:53.667Z,1000.6
2016-09-29T03:42:14.234Z,1000.6
2016-09-29T03:42:34.808Z,1000.6
2016-09-29T03:42:55.376Z,1000.6
2016-09-29T03:43:15.963Z,1000.5
2016-09-29T03:43:36.545Z,1000.6
2016-09-29T03:43:57.094Z,1000.5
2016-09-29T03:44:17.683Z,1000.5
2016-09-29T03:44:38.267Z,1000.5
2016-09-29T03:44:58.832Z,1000.5
2016-09-29T03:45:19.401Z,1000.5
2016-09-29T03:45:39.967Z,1000.5
2016-09-29T03:46:00.535Z,1000.5
2016-09-29T03:46:21.094Z,1000.5
2016-09-29T03:46:41.662Z,1000.5
2016-09-29T03:47:02.241Z,1000.5
2016-09-29T03:47:22.807Z,1000.5
2016-09-29T03:47:43.385Z,1000.5
2016-09-29T03:48:03.967Z,1000.5
2016-09-29T03:48:24.548Z,1000.5
2016-09-29T03:48:45.115Z,1000.4
2016-09-29T03:49:05.700Z,1000.4
2016-09-29T03:49:26.309Z,1000.5
2016-09-29T03:49:46.887Z,1000.5
2016-09-29T03:50:07.497Z,1000.5
2016-09-29T03:50:28.067Z,1000.5
2016-09-29T03:50:48.644Z,1000.5
2016-09-29T03:51:09.239Z,1000.5
2016-09-29T03:51:29.900Z,1000.5
2016-09-29T03:51:50.453Z,1000.5
2016-09-29T03:52:11.034Z,1000.5
2016-09-29T03:52:31.612Z,1000.5
2016-09-29T03:52:52.221Z,1000.5
2016-09-29T03:53:12.793Z,1000.5
2016-09-29T03:53:33.380Z,1000.5
2016-09-29T03:53:53.950Z,1000.5
2016-09-29T03:54:14.555Z,1000.5
2016-09-29T03:54:35.142Z,1000.5
2016-09-29T03:54:55.727Z,1000.5
2016-09-29T03:55:16.294Z,1000.5
2016-09-29T03:55:36.907Z,1000.5
2016-09-29T03:55:57.503Z,1000.5
2016-09-29T03:56:18.103Z,1000.5
2016-09-29T03:56:38.684Z,1000.5
2016-09-29T03:56:59.253Z,1000.5
2016-09-29T03:57:19.847Z,1000.5
2016-09-29T03:57:40.482Z,1000.5
2016-09-29T03:58:01.050Z,1000.5
2016-09-29T03:58:21.622Z,1000.5
2016-09-29T03:58:42.191Z,1000.5
2016-09-29T03:59:02.796Z,1000.5
2016-09-29T03:59:23.368Z,1000.5
2016-09-29T03:59:43.931Z,1000.5
2016-09-29T04:00:04.502Z,1000.5
2016-09-29T04:00:25.084Z,1000.5
2016-09-29T04:00:45.658Z,1000.5
2016-09-29T04:01:06.254Z,1000.5
2016-09-29T04:01:26.822Z,1000.5
2016-09-29T04:01:47.412Z,1000.5
2016-09-29T04:02:07.989Z,1000.5
2016-09-29T04:02:28.581Z,1000.5
2016-09-29T04:02:49.144Z,1000.5
2016-09-29T04:03:09.726Z,1000.5
2016-09-29T04:03:30.307Z,1000.5
2016-09-29T04:03:50.883Z,1000.5
2016-09-29T04:04:11.463Z,1000.5
2016-09-29T04:04:32.034Z,1000.5
2016-09-29T04:04:52.612Z,1000.5
2016-09-29T04:05:13.192Z,1000.5
2016-09-29T04:05:33.787Z,1000.4
2016-09-29T04:05:54.371Z,1000.4
2016-09-29T04:06:14.962Z,1000.5
2016-09-29T04:06:35.627Z,1000.5
2016-09-29T04:06:56.199Z,1000.5
2016-09-29T04:07:16.798Z,1000.4
2016-09-29T04:07:37.403Z,1000.4
2016-09-29T04:07:58.014Z,1000.5
2016-09-29T04:08:18.577Z,1000.4
2016-09-29T04:08:39.157Z,1000.5
2016-09-29T04:08:59.728Z,1000.4
2016-09-29T04:09:20.326Z,1000.4
2016-09-29T04:09:40.907Z,1000.4
2016-09-29T04:10:01.502Z,1000.4
2016-09-29T04:10:22.067Z,1000.4
2016-09-29T04:10:42.664Z,1000.5
2016-09-29T04:11:03.252Z,1000.5
2016-09-29T04:11:23.831Z,1000.4
2016-09-29T04:11:44.415Z,1000.5
2016-09-29T04:12:04.980Z,1000.5
2016-09-29T04:12:25.553Z,1000.5
2016-09-29T04:12:46.137Z,1000.4
2016-09-29T04:13:06.726Z,1000.5
2016-09-29T04:13:27.301Z,1000.4
2016-09-29T04:13:47.876Z,1000.4
2016-09-29T04:14:08.447Z,1000.5
2016-09-29T04:14:29.043Z,1000.4
2016-09-29T04:14:49.639Z,1000.4
2016-09-29T04:15:10.202Z,1000.4
2016-09-29T04:15:30.785Z,1000.4
2016-09-29T04:15:51.359Z,1000.4
2016-09-29T04:16:11.931Z,1000.4
2016-09-29T04:16:32.517Z,1000.4
2016-09-29T04:16:53.096Z,1000.4
2016-09-29T04:17:13.701Z,1000.4
2016-09-29T04:17:34.278Z,1000.4